createdAt,value
2023-03-01T00:00:13.895Z,-1.6
2023-03-01T00:01:30.196Z,-1.6
2023-03-01T00:02:46.485Z,-1.6
2023-03-01T00:04:02.776Z,-1.7
2023-03-01T00:05:19.082Z,-1.7
2023-03-01T00:06:35.378Z,-1.7
2023-03-01T00:07:51.674Z,-1.7
2023-03-01T00:09:07.976Z,-1.7
2023-03-01T00:10:23.277Z,-1.7
2023-03-01T00:12:54.895Z,-1.7
2023-03-01T00:14:11.187Z,-1.7
2023-03-01T00:15:27.481Z,-1.7
2023-03-01T00:16:43.784Z,-1.7
2023-03-01T00:18:00.065Z,-1.7
2023-03-01T00:19:16.366Z,-1.7
2023-03-01T00:20:32.664Z,-1.7
2023-03-01T00:21:48.964Z,-1.7
2023-03-01T00:23:05.245Z,-1.7
2023-03-01T00:24:21.547Z,-1.7
2023-03-01T00:25:37.837Z,-1.8
2023-03-01T00:26:54.130Z,-1.7
2023-03-01T00:28:09.439Z,-1.8
2023-03-01T00:29:25.752Z,-1.8
2023-03-01T00:30:42.048Z,-1.8
2023-03-01T00:31:58.335Z,-1.8
2023-03-01T00:33:14.636Z,-1.8
2023-03-01T00:34:30.930Z,-1.8
2023-03-01T00:35:47.209Z,-1.8
2023-03-01T00:37:03.508Z,-1.8
2023-03-01T00:38:19.799Z,-1.8
2023-03-01T00:39:36.111Z,-1.8
2023-03-01T00:40:52.401Z,-1.8
2023-03-01T00:42:08.697Z,-1.8
2023-03-01T00:43:24.994Z,-1.8
2023-03-01T00:44:40.296Z,-1.8
2023-03-01T00:45:56.592Z,-1.8
2023-03-01T00:47:12.898Z,-1.8
2023-03-01T00:48:29.189Z,-1.9
2023-03-01T00:49:45.488Z,-1.9
2023-03-01T00:51:01.778Z,-1.9
2023-03-01T00:52:18.064Z,-1.9
2023-03-01T00:53:34.375Z,-1.9
2023-03-01T00:54:50.671Z,-1.9
2023-03-01T00:56:06.971Z,-1.9
2023-03-01T00:57:23.262Z,-1.9
2023-03-01T00:58:39.553Z,-1.9
2023-03-01T00:59:55.841Z,-2
2023-03-01T01:01:11.167Z,-2
2023-03-01T01:02:27.456Z,-2
2023-03-01T01:03:43.737Z,-2
2023-03-01T01:06:16.343Z,-2
2023-03-01T01:07:32.643Z,-2
2023-03-01T01:08:48.930Z,-2
2023-03-01T01:10:05.220Z,-2
2023-03-01T01:11:21.518Z,-2
2023-03-01T01:12:37.810Z,-2
2023-03-01T01:13:54.117Z,-2
2023-03-01T01:16:26.696Z,-2
2023-03-01T01:17:42.009Z,-2
2023-03-01T01:18:58.299Z,-2
2023-03-01T01:20:14.609Z,-2
2023-03-01T01:21:30.889Z,-2
2023-03-01T01:22:47.189Z,-2
2023-03-01T01:24:03.499Z,-2
2023-03-01T01:25:19.778Z,-2.1
2023-03-01T01:26:36.074Z,-2.1
2023-03-01T01:27:52.379Z,-2.1
2023-03-01T01:29:08.674Z,-2.2
2023-03-01T01:30:24.970Z,-2.2
2023-03-01T01:31:41.263Z,-2.2
2023-03-01T01:32:57.564Z,-2.2
2023-03-01T01:34:12.868Z,-2.2
2023-03-01T01:36:45.455Z,-2.2
2023-03-01T01:38:01.744Z,-2.3
2023-03-01T01:39:18.044Z,-2.3
2023-03-01T01:40:34.347Z,-2.3
2023-03-01T01:41:50.630Z,-2.3
2023-03-01T01:43:06.934Z,-2.3
2023-03-01T01:44:23.234Z,-2.3
2023-03-01T01:45:39.521Z,-2.3
2023-03-01T01:46:55.819Z,-2.3
2023-03-01T01:48:12.110Z,-2.3
2023-03-01T01:49:28.413Z,-2.3
2023-03-01T01:50:43.730Z,-2.3
2023-03-01T01:52:00.012Z,-2.3
2023-03-01T01:53:16.314Z,-2.3
2023-03-01T01:54:32.604Z,-2.3
2023-03-01T01:55:48.913Z,-2.3
2023-03-01T01:57:05.202Z,-2.3
2023-03-01T01:58:21.507Z,-2.3
2023-03-01T01:59:37.794Z,-2.4
2023-03-01T02:00:54.000Z,-2.4
2023-03-01T02:02:10.393Z,-2.4
2023-03-01T02:03:26.670Z,-2.4
2023-03-01T02:04:42.980Z,-2.4
2023-03-01T02:05:59.273Z,-2.4
2023-03-01T02:07:14.591Z,-2.4
2023-03-01T02:08:30.869Z,-2.4
2023-03-01T02:09:47.163Z,-2.4
2023-03-01T02:11:03.476Z,-2.5
2023-03-01T02:12:19.762Z,-2.5
2023-03-01T02:13:36.064Z,-2.5
2023-03-01T02:14:52.359Z,-2.5
2023-03-01T02:16:08.646Z,-2.5
2023-03-01T02:17:24.936Z,-2.5
2023-03-01T02:18:41.235Z,-2.5
2023-03-01T02:19:57.530Z,-2.5
2023-03-01T02:21:13.839Z,-2.5
2023-03-01T02:22:30.121Z,-2.5
2023-03-01T02:23:45.439Z,-2.6
2023-03-01T02:25:01.732Z,-2.6
2023-03-01T02:26:18.019Z,-2.5
2023-03-01T02:27:34.325Z,-2.6
2023-03-01T02:28:50.625Z,-2.6
2023-03-01T02:30:06.919Z,-2.6
2023-03-01T02:31:23.210Z,-2.5
2023-03-01T02:32:39.517Z,-2.5
2023-03-01T02:33:55.794Z,-2.5
2023-03-01T02:35:12.091Z,-2.5
2023-03-01T02:36:28.400Z,-2.5
2023-03-01T02:37:44.686Z,-2.5
2023-03-01T02:39:00.990Z,-2.4
2023-03-01T02:40:16.290Z,-2.5
2023-03-01T02:41:32.586Z,-2.5
2023-03-01T02:42:48.894Z,-2.5
2023-03-01T02:44:05.175Z,-2.5
2023-03-01T02:45:21.477Z,-2.5
2023-03-01T02:46:37.781Z,-2.5
2023-03-01T02:47:54.069Z,-2.5
2023-03-01T02:49:10.366Z,-2.5
2023-03-01T02:50:26.657Z,-2.5
2023-03-01T02:51:42.954Z,-2.5
2023-03-01T02:52:59.240Z,-2.5
2023-03-01T02:54:15.553Z,-2.5
2023-03-01T02:55:31.834Z,-2.5
2023-03-01T02:56:47.147Z,-2.5
2023-03-01T02:58:03.449Z,-2.5
2023-03-01T02:59:19.735Z,-2.5
2023-03-01T03:00:36.048Z,-2.5
2023-03-01T03:01:52.327Z,-2.5
2023-03-01T03:03:08.630Z,-2.5
2023-03-01T03:04:24.915Z,-2.6
2023-03-01T03:05:40.240Z,-2.6
2023-03-01T03:06:56.530Z,-2.6
2023-03-01T03:08:12.835Z,-2.6
2023-03-01T03:09:29.130Z,-2.6
2023-03-01T03:10:45.418Z,-2.6
2023-03-01T03:12:01.716Z,-2.6
2023-03-01T03:13:18.005Z,-2.6
2023-03-01T03:14:34.303Z,-2.6
2023-03-01T03:15:50.612Z,-2.7
2023-03-01T03:17:06.895Z,-2.6
2023-03-01T03:18:23.191Z,-2.7
2023-03-01T03:23:28.367Z,-2.7
2023-03-01T03:24:43.684Z,-2.8
2023-03-01T03:25:58.996Z,-2.7
2023-03-01T03:27:15.293Z,-2.7
2023-03-01T03:28:31.589Z,-2.8
2023-03-01T03:29:47.898Z,-2.8
2023-03-01T03:31:04.194Z,-2.7
2023-03-01T03:32:20.472Z,-2.8
2023-03-01T03:33:36.784Z,-2.8
2023-03-01T03:34:53.079Z,-2.8
2023-03-01T03:36:09.378Z,-2.7
2023-03-01T03:37:25.667Z,-2.7
2023-03-01T03:38:40.986Z,-2.8
2023-03-01T03:39:56.299Z,-2.8
2023-03-01T03:41:12.585Z,-2.8
2023-03-01T03:42:28.892Z,-2.8
2023-03-01T03:43:45.185Z,-2.8
2023-03-01T03:45:01.463Z,-2.9
2023-03-01T03:46:17.774Z,-2.9
2023-03-01T03:47:34.063Z,-2.9
2023-03-01T03:48:50.359Z,-2.9
2023-03-01T03:50:06.650Z,-2.9
2023-03-01T03:51:22.957Z,-2.9
2023-03-01T03:52:39.240Z,-2.9
2023-03-01T03:53:55.540Z,-2.9
2023-03-01T03:55:11.835Z,-3
2023-03-01T03:56:27.142Z,-3
2023-03-01T03:57:43.452Z,-3
2023-03-01T03:58:59.734Z,-3
2023-03-01T04:00:16.025Z,-3
2023-03-01T04:01:32.336Z,-3
2023-03-01T04:02:48.623Z,-3
2023-03-01T04:04:04.913Z,-3
2023-03-01T04:05:21.208Z,-3
2023-03-01T04:06:37.519Z,-3
2023-03-01T04:07:53.803Z,-3
2023-03-01T04:09:10.096Z,-3
2023-03-01T04:10:26.403Z,-3
2023-03-01T04:11:42.698Z,-3
2023-03-01T04:12:58.011Z,-3
2023-03-01T04:14:14.299Z,-3
2023-03-01T04:15:30.588Z,-3
2023-03-01T04:16:46.882Z,-3
2023-03-01T04:18:03.191Z,-3
2023-03-01T04:19:19.472Z,-3
2023-03-01T04:20:35.786Z,-3
2023-03-01T04:21:52.073Z,-3
2023-03-01T04:23:08.361Z,-3
2023-03-01T04:24:24.657Z,-3.1
2023-03-01T04:25:40.961Z,-3.1
2023-03-01T04:26:57.261Z,-3.1
2023-03-01T04:28:13.544Z,-3.1
2023-03-01T04:29:28.855Z,-3.2
2023-03-01T04:32:01.442Z,-3.2
2023-03-01T04:33:17.752Z,-3.2
2023-03-01T04:34:34.040Z,-3.2
2023-03-01T04:35:50.339Z,-3.2
2023-03-01T04:37:06.627Z,-3.2
2023-03-01T04:38:22.936Z,-3.2
2023-03-01T04:39:39.234Z,-3.2
2023-03-01T04:40:55.521Z,-3.2
2023-03-01T04:42:11.822Z,-3.2
2023-03-01T04:44:44.409Z,-3.2
2023-03-01T04:45:59.714Z,-3.2
2023-03-01T04:47:16.023Z,-3.2
2023-03-01T04:48:32.300Z,-3.3
2023-03-01T04:49:48.612Z,-3.3
2023-03-01T04:51:04.908Z,-3.3
2023-03-01T04:52:21.197Z,-3.3
2023-03-01T04:54:53.786Z,-3.3
2023-03-01T04:56:09.094Z,-3.4
2023-03-01T04:57:24.420Z,-3.4
2023-03-01T04:58:40.721Z,-3.4
2023-03-01T04:59:57.005Z,-3.4
2023-03-01T05:01:13.295Z,-3.4
2023-03-01T05:02:29.606Z,-3.4
2023-03-01T05:03:45.886Z,-3.5
2023-03-01T05:05:02.177Z,-3.5
2023-03-01T05:06:18.473Z,-3.5
2023-03-01T05:07:34.788Z,-3.5
2023-03-01T05:08:51.072Z,-3.6
2023-03-01T05:10:06.393Z,-3.6
2023-03-01T05:11:21.701Z,-3.5
2023-03-01T05:12:37.991Z,-3.6
2023-03-01T05:13:54.286Z,-3.6
2023-03-01T05:15:10.599Z,-3.6
2023-03-01T05:16:26.895Z,-3.6
2023-03-01T05:17:43.191Z,-3.6
2023-03-01T05:18:59.417Z,-3.6
2023-03-01T05:20:15.719Z,-3.6
2023-03-01T05:21:31.974Z,-3.6
2023-03-01T05:22:48.215Z,-3.6
2023-03-01T05:24:04.443Z,-3.7
2023-03-01T05:25:20.759Z,-3.7
2023-03-01T05:26:37.006Z,-3.7
2023-03-01T05:27:52.249Z,-3.6
2023-03-01T05:29:08.517Z,-3.6
2023-03-01T05:30:24.755Z,-3.7
2023-03-01T05:31:40.996Z,-3.7
2023-03-01T05:32:57.233Z,-3.7
2023-03-01T05:34:13.480Z,-3.7
2023-03-01T05:35:29.714Z,-3.7
2023-03-01T05:36:45.965Z,-3.7
2023-03-01T05:39:18.438Z,-3.8
2023-03-01T05:40:34.689Z,-3.7
2023-03-01T05:41:50.923Z,-3.8
2023-03-01T05:43:07.176Z,-3.8
2023-03-01T05:44:22.416Z,-3.8
2023-03-01T05:45:38.664Z,-3.8
2023-03-01T05:46:54.911Z,-3.8
2023-03-01T05:48:11.156Z,-3.7
2023-03-01T05:49:27.391Z,-3.8
2023-03-01T05:50:43.644Z,-3.8
2023-03-01T05:51:59.868Z,-3.8
2023-03-01T05:53:16.121Z,-3.8
2023-03-01T05:54:32.354Z,-3.8
2023-03-01T05:55:48.609Z,-3.8
2023-03-01T05:57:04.845Z,-3.7
2023-03-01T05:58:21.089Z,-3.7
2023-03-01T05:59:37.322Z,-3.7
2023-03-01T06:00:52.577Z,-3.7
2023-03-01T06:02:08.827Z,-3.7
2023-03-01T06:03:25.061Z,-3.7
2023-03-01T06:04:41.299Z,-3.6
2023-03-01T06:05:57.544Z,-3.6
2023-03-01T06:07:13.783Z,-3.6
2023-03-01T06:08:30.025Z,-3.6
2023-03-01T06:09:46.265Z,-3.6
2023-03-01T06:11:02.521Z,-3.6
2023-03-01T06:12:18.764Z,-3.6
2023-03-01T06:13:35.006Z,-3.6
2023-03-01T06:14:51.230Z,-3.6
2023-03-01T06:16:07.488Z,-3.6
2023-03-01T06:17:22.746Z,-3.6
2023-03-01T06:18:38.977Z,-3.6
2023-03-01T06:19:55.228Z,-3.6
2023-03-01T06:21:11.462Z,-3.6
2023-03-01T06:22:27.692Z,-3.6
2023-03-01T06:23:43.943Z,-3.6
2023-03-01T06:25:00.177Z,-3.5
2023-03-01T06:26:16.424Z,-3.5
2023-03-01T06:27:32.662Z,-3.5
2023-03-01T06:28:48.919Z,-3.4
2023-03-01T06:30:05.149Z,-3.4
2023-03-01T06:31:21.400Z,-3.4
2023-03-01T06:32:37.635Z,-3.4
2023-03-01T06:33:52.900Z,-3.3
2023-03-01T06:35:09.134Z,-3.3
2023-03-01T06:36:25.376Z,-3.3
2023-03-01T06:37:41.612Z,-3.3
2023-03-01T06:38:57.860Z,-3.3
2023-03-01T06:40:14.106Z,-3.2
2023-03-01T06:41:30.331Z,-3.2
2023-03-01T06:42:46.590Z,-3.2
2023-03-01T06:44:02.829Z,-3.1
2023-03-01T06:45:19.074Z,-3.1
2023-03-01T06:46:35.309Z,-3
2023-03-01T06:47:51.545Z,-3
2023-03-01T06:49:07.799Z,-3
2023-03-01T06:50:23.049Z,-3
2023-03-01T06:51:39.289Z,-3
2023-03-01T06:52:55.536Z,-2.9
2023-03-01T06:54:11.768Z,-2.8
2023-03-01T06:55:28.017Z,-2.8
2023-03-01T06:56:44.251Z,-2.8
2023-03-01T06:58:00.496Z,-2.8
2023-03-01T06:59:16.746Z,-2.7
2023-03-01T07:00:32.976Z,-2.7
2023-03-01T07:01:49.231Z,-2.7
2023-03-01T07:03:05.466Z,-2.7
2023-03-01T07:04:21.692Z,-2.7
2023-03-01T07:05:37.942Z,-2.7
2023-03-01T07:06:53.201Z,-2.7
2023-03-01T07:08:09.436Z,-2.6
2023-03-01T07:09:25.680Z,-2.6
2023-03-01T07:10:41.926Z,-2.6
2023-03-01T07:11:58.173Z,-2.5
2023-03-01T07:13:14.400Z,-2.5
2023-03-01T07:14:30.659Z,-2.5
2023-03-01T07:15:46.901Z,-2.5
2023-03-01T07:17:03.127Z,-2.5
2023-03-01T07:19:35.622Z,-2.4
2023-03-01T07:20:50.877Z,-2.4
2023-03-01T07:22:07.112Z,-2.4
2023-03-01T07:23:23.365Z,-2.3
2023-03-01T07:24:39.604Z,-2.4
2023-03-01T07:27:12.077Z,-2.4
2023-03-01T07:28:28.326Z,-2.3
2023-03-01T07:29:44.571Z,-2.3
2023-03-01T07:31:00.817Z,-2.3
2023-03-01T07:32:17.053Z,-2.2
2023-03-01T07:33:33.300Z,-2.3
2023-03-01T07:34:49.528Z,-2.2
2023-03-01T07:36:05.770Z,-2.1
2023-03-01T07:37:21.035Z,-2.1
2023-03-01T07:38:37.269Z,-2.1
2023-03-01T07:39:53.515Z,-2
2023-03-01T07:41:09.743Z,-2
2023-03-01T07:42:25.989Z,-2
2023-03-01T07:43:42.233Z,-1.9
2023-03-01T07:44:58.468Z,-1.9
2023-03-01T07:46:14.716Z,-1.9
2023-03-01T07:47:30.958Z,-1.9
2023-03-01T07:48:47.201Z,-1.8
2023-03-01T07:50:03.434Z,-1.8
2023-03-01T07:51:19.682Z,-1.8
2023-03-01T07:52:35.921Z,-1.8
2023-03-01T07:53:51.191Z,-1.7
2023-03-01T07:55:07.414Z,-1.7
2023-03-01T07:56:23.657Z,-1.7
2023-03-01T07:57:39.899Z,-1.6
2023-03-01T07:58:56.144Z,-1.6
2023-03-01T08:00:12.381Z,-1.6
2023-03-01T08:01:28.627Z,-1.6
2023-03-01T08:02:44.868Z,-1.5
2023-03-01T08:04:01.101Z,-1.5
2023-03-01T08:05:17.361Z,-1.4
2023-03-01T08:06:33.596Z,-1.4
2023-03-01T08:07:49.828Z,-1.4
2023-03-01T08:09:06.073Z,-1.3
2023-03-01T08:10:21.339Z,-1.3
2023-03-01T08:12:53.821Z,-1.2
2023-03-01T08:14:10.061Z,-1.2
2023-03-01T08:15:26.309Z,-1.1
2023-03-01T08:17:58.776Z,-1
2023-03-01T08:19:14.998Z,-1
2023-03-01T08:20:31.246Z,-1
2023-03-01T08:21:47.478Z,-0.9
2023-03-01T08:23:03.730Z,-0.9
2023-03-01T08:24:19.968Z,-0.8
2023-03-01T08:25:36.201Z,-0.8
2023-03-01T08:26:51.465Z,-0.7
2023-03-01T08:28:07.699Z,-0.7
2023-03-01T08:29:23.945Z,-0.7
2023-03-01T08:30:40.192Z,-0.6
2023-03-01T08:31:56.000Z,-0.6
2023-03-01T08:33:12.669Z,-0.6
2023-03-01T08:34:28.911Z,-0.5
2023-03-01T08:35:45.147Z,-0.5
2023-03-01T08:38:17.642Z,-0.4
2023-03-01T08:39:32.911Z,-0.4
2023-03-01T08:40:48.164Z,-0.3
2023-03-01T08:42:04.409Z,-0.3
2023-03-01T08:43:20.637Z,-0.3
2023-03-01T08:44:36.873Z,-0.2
2023-03-01T08:45:53.131Z,-0.2
2023-03-01T08:47:09.356Z,-0.1
2023-03-01T08:48:25.596Z,-0.1
2023-03-01T08:49:41.853Z,0
2023-03-01T08:50:58.085Z,0
2023-03-01T08:52:14.332Z,0
2023-03-01T08:53:29.588Z,0
2023-03-01T08:54:44.843Z,0
2023-03-01T08:56:01.079Z,0.1
2023-03-01T08:57:17.334Z,0.2
2023-03-01T08:58:33.573Z,0.2
2023-03-01T08:59:49.802Z,0.2
2023-03-01T09:01:06.060Z,0.3
2023-03-01T09:02:22.283Z,0.3
2023-03-01T09:03:38.537Z,0.4
2023-03-01T09:04:54.773Z,0.4
2023-03-01T09:06:11.025Z,0.4
2023-03-01T09:07:27.265Z,0.4
2023-03-01T09:08:43.499Z,0.5
2023-03-01T09:09:59.746Z,0.6
2023-03-01T09:11:14.996Z,0.6
2023-03-01T09:12:31.238Z,0.6
2023-03-01T09:13:47.473Z,0.7
2023-03-01T09:15:03.717Z,0.7
2023-03-01T09:16:19.951Z,0.7
2023-03-01T09:17:36.201Z,0.8
2023-03-01T09:18:52.437Z,0.8
2023-03-01T09:20:08.676Z,0.8
2023-03-01T09:21:24.921Z,0.9
2023-03-01T09:22:41.164Z,0.9
2023-03-01T09:23:57.395Z,0.9
2023-03-01T09:25:13.645Z,0.9
2023-03-01T09:26:29.894Z,0.9
2023-03-01T09:27:46.249Z,1
2023-03-01T09:29:02.493Z,1
2023-03-01T09:30:18.723Z,1
2023-03-01T09:31:34.970Z,1.1
2023-03-01T09:34:07.464Z,1.2
2023-03-01T09:35:23.704Z,1.2
2023-03-01T09:36:39.944Z,1.2
2023-03-01T09:37:56.166Z,1.3
2023-03-01T09:39:12.406Z,1.3
2023-03-01T09:40:28.657Z,1.2
2023-03-01T09:41:44.901Z,1.3
2023-03-01T09:44:17.386Z,1.2
2023-03-01T09:45:32.640Z,1.3
2023-03-01T09:46:48.886Z,1.3
2023-03-01T09:48:05.116Z,1.4
2023-03-01T09:49:21.367Z,1.4
2023-03-01T09:50:37.610Z,1.4
2023-03-01T09:51:53.850Z,1.4
2023-03-01T09:53:10.080Z,1.4
2023-03-01T09:54:26.314Z,1.5
2023-03-01T09:55:42.561Z,1.5
2023-03-01T09:56:58.806Z,1.5
2023-03-01T09:58:15.046Z,1.5
2023-03-01T09:59:31.279Z,1.5
2023-03-01T10:00:47.538Z,1.5
2023-03-01T10:02:02.778Z,1.5
2023-03-01T10:04:35.262Z,1.6
2023-03-01T10:07:07.750Z,1.6
2023-03-01T10:08:23.010Z,1.6
2023-03-01T10:09:38.266Z,1.6
2023-03-01T10:10:54.517Z,1.6
2023-03-01T10:12:10.757Z,1.7
2023-03-01T10:13:26.983Z,1.7
2023-03-01T10:14:43.227Z,1.7
2023-03-01T10:15:59.471Z,1.8
2023-03-01T10:17:15.713Z,1.8
2023-03-01T10:18:31.945Z,1.9
2023-03-01T10:19:48.197Z,1.9
2023-03-01T10:21:04.427Z,1.9
2023-03-01T10:22:19.699Z,2
2023-03-01T10:23:34.947Z,2
2023-03-01T10:24:51.197Z,2
2023-03-01T10:26:07.434Z,2
2023-03-01T10:27:23.683Z,2
2023-03-01T10:28:39.927Z,2
2023-03-01T10:29:56.157Z,2
2023-03-01T10:31:12.395Z,2
2023-03-01T10:32:28.646Z,2.1
2023-03-01T10:33:44.877Z,2.1
2023-03-01T10:35:01.127Z,2.1
2023-03-01T10:36:17.364Z,2.1
2023-03-01T10:37:33.595Z,2.1
2023-03-01T10:38:49.854Z,2.1
2023-03-01T10:40:05.100Z,2.1
2023-03-01T10:41:21.343Z,2.2
2023-03-01T10:42:37.587Z,2.2
2023-03-01T10:45:10.057Z,2.2
2023-03-01T10:46:26.307Z,2.3
2023-03-01T10:47:42.551Z,2.3
2023-03-01T10:48:58.796Z,2.3
2023-03-01T10:50:15.019Z,2.3
2023-03-01T10:51:31.263Z,2.4
2023-03-01T10:52:47.500Z,2.4
2023-03-01T10:54:03.755Z,2.4
2023-03-01T10:55:20.001Z,2.4
2023-03-01T10:56:36.245Z,2.4
2023-03-01T10:57:51.497Z,2.4
2023-03-01T10:59:07.739Z,2.4
2023-03-01T11:00:23.975Z,2.5
2023-03-01T11:01:40.217Z,2.5
2023-03-01T11:02:56.444Z,2.6
2023-03-01T11:04:12.685Z,2.6
2023-03-01T11:05:28.936Z,2.6
2023-03-01T11:06:45.186Z,2.6
2023-03-01T11:08:01.409Z,2.7
2023-03-01T11:10:33.898Z,2.8
2023-03-01T11:11:50.136Z,2.8
2023-03-01T11:13:06.382Z,2.8
2023-03-01T11:15:38.864Z,2.9
2023-03-01T11:16:55.101Z,2.9
2023-03-01T11:18:10.363Z,2.9
2023-03-01T11:19:26.599Z,2.9
2023-03-01T11:20:42.844Z,2.9
2023-03-01T11:23:15.320Z,3
2023-03-01T11:24:30.594Z,3
2023-03-01T11:25:45.843Z,3
2023-03-01T11:27:02.080Z,3
2023-03-01T11:28:18.332Z,3
2023-03-01T11:29:34.570Z,3.1
2023-03-01T11:30:50.807Z,3.1
2023-03-01T11:32:07.053Z,3.1
2023-03-01T11:33:23.277Z,3.1
2023-03-01T11:34:39.515Z,3.1
2023-03-01T11:38:27.277Z,3.2
2023-03-01T11:39:42.529Z,3.2
2023-03-01T11:40:57.786Z,3.3
2023-03-01T11:42:14.038Z,3.3
2023-03-01T11:43:29.300Z,3.3
2023-03-01T11:46:01.779Z,3.3
2023-03-01T11:47:18.003Z,3.3
2023-03-01T11:48:34.248Z,3.4
2023-03-01T11:49:50.491Z,3.4
2023-03-01T11:51:06.737Z,3.4
2023-03-01T11:53:39.212Z,3.3
2023-03-01T11:54:55.465Z,3.4
2023-03-01T11:56:11.696Z,3.5
2023-03-01T11:57:27.947Z,3.6
2023-03-01T12:01:16.671Z,3.7
2023-03-01T12:02:31.923Z,3.6
2023-03-01T12:03:48.161Z,3.6
2023-03-01T12:05:04.399Z,3.7
2023-03-01T12:06:20.647Z,3.7
2023-03-01T12:07:36.885Z,3.7
2023-03-01T12:08:53.115Z,3.7
2023-03-01T12:10:09.364Z,3.7
2023-03-01T12:11:25.000Z,3.7
2023-03-01T12:12:41.839Z,3.7
2023-03-01T12:13:58.084Z,3.7
2023-03-01T12:15:14.326Z,3.8
2023-03-01T12:16:30.568Z,3.8
2023-03-01T12:17:46.799Z,3.8
2023-03-01T12:19:02.056Z,3.8
2023-03-01T12:21:34.540Z,3.8
2023-03-01T12:22:50.787Z,3.8
2023-03-01T12:24:07.024Z,3.7
2023-03-01T12:25:23.273Z,3.8
2023-03-01T12:26:39.511Z,3.8
2023-03-01T12:27:54.770Z,3.8
2023-03-01T12:29:10.036Z,3.9
2023-03-01T12:30:26.258Z,3.9
2023-03-01T12:31:42.507Z,3.9
2023-03-01T12:32:58.759Z,3.9
2023-03-01T12:34:14.979Z,4
2023-03-01T12:35:31.232Z,3.9
2023-03-01T12:36:47.462Z,3.9
2023-03-01T12:39:19.952Z,4.1
2023-03-01T12:41:52.442Z,4.1
2023-03-01T12:43:08.676Z,4.1
2023-03-01T12:44:23.928Z,4.1
2023-03-01T12:45:39.188Z,4.1
2023-03-01T12:46:55.435Z,4.2
2023-03-01T12:48:11.682Z,4.1
2023-03-01T12:49:27.918Z,4.1
2023-03-01T12:50:44.156Z,4.1
2023-03-01T12:52:00.407Z,4.2
2023-03-01T12:53:16.650Z,4.2
2023-03-01T12:54:32.878Z,4.2
2023-03-01T12:55:49.121Z,4.2
2023-03-01T12:57:05.350Z,4.2
2023-03-01T12:58:21.604Z,4.3
2023-03-01T12:59:37.832Z,4.3
2023-03-01T13:00:53.101Z,4.3
2023-03-01T13:02:09.345Z,4.3
2023-03-01T13:03:25.703Z,4.3
2023-03-01T13:04:41.954Z,4.4
2023-03-01T13:05:58.192Z,4.4
2023-03-01T13:07:14.433Z,4.4
2023-03-01T13:08:30.677Z,4.5
2023-03-01T13:09:46.902Z,4.5
2023-03-01T13:11:03.152Z,4.5
2023-03-01T13:12:19.398Z,4.5
2023-03-01T13:13:35.641Z,4.6
2023-03-01T13:14:50.901Z,4.6
2023-03-01T13:16:06.156Z,4.7
2023-03-01T13:17:22.385Z,4.6
2023-03-01T13:18:38.637Z,4.6
2023-03-01T13:19:54.864Z,4.7
2023-03-01T13:21:11.109Z,4.7
2023-03-01T13:22:27.346Z,4.8
2023-03-01T13:24:59.833Z,4.9
2023-03-01T13:26:16.081Z,4.9
2023-03-01T13:27:32.314Z,4.9
2023-03-01T13:28:48.564Z,4.9
2023-03-01T13:30:04.799Z,4.9
2023-03-01T13:32:37.274Z,4.9
2023-03-01T13:33:53.530Z,4.9
2023-03-01T13:35:08.786Z,4.9
2023-03-01T13:36:25.016Z,4.9
2023-03-01T13:37:40.268Z,4.9
2023-03-01T13:40:12.756Z,5.1
2023-03-01T13:41:28.998Z,5.1
2023-03-01T13:42:45.245Z,5.1
2023-03-01T13:44:01.476Z,5.1
2023-03-01T13:45:17.728Z,5.1
2023-03-01T13:46:33.973Z,5.1
2023-03-01T13:47:50.211Z,5.1
2023-03-01T13:49:06.446Z,5.1
2023-03-01T13:50:22.678Z,5.1
2023-03-01T13:52:55.155Z,5.2
2023-03-01T13:54:11.544Z,5.2
2023-03-01T13:55:27.794Z,5.2
2023-03-01T13:56:43.041Z,5.2
2023-03-01T13:59:15.536Z,5.2
2023-03-01T14:00:31.771Z,5.2
2023-03-01T14:03:04.242Z,5.3
2023-03-01T14:04:20.490Z,5.3
2023-03-01T14:05:36.739Z,5.3
2023-03-01T14:06:52.961Z,5.3
2023-03-01T14:08:09.219Z,5.3
2023-03-01T14:09:25.454Z,5.3
2023-03-01T14:11:57.937Z,5.3
2023-03-01T14:13:13.189Z,5.3
2023-03-01T14:14:29.420Z,5.3
2023-03-01T14:15:45.673Z,5.3
2023-03-01T14:18:18.156Z,5.4
2023-03-01T14:19:34.388Z,5.4
2023-03-01T14:20:50.642Z,5.4
2023-03-01T14:22:06.865Z,5.4
2023-03-01T14:23:23.109Z,5.4
2023-03-01T14:24:39.357Z,5.3
2023-03-01T14:25:55.588Z,5.3
2023-03-01T14:27:11.828Z,5.4
2023-03-01T14:28:28.081Z,5.3
2023-03-01T14:29:43.339Z,5.4
2023-03-01T14:30:59.578Z,5.4
2023-03-01T14:32:15.818Z,5.4
2023-03-01T14:33:32.065Z,5.4
2023-03-01T14:34:48.294Z,5.4
2023-03-01T14:36:04.537Z,5.4
2023-03-01T14:37:20.771Z,5.5
2023-03-01T14:38:36.032Z,5.5
2023-03-01T14:41:07.532Z,5.4
2023-03-01T14:42:23.786Z,5.4
2023-03-01T14:43:40.023Z,5.4
2023-03-01T14:44:56.259Z,5.4
2023-03-01T14:46:12.503Z,5.4
2023-03-01T14:47:28.738Z,5.4
2023-03-01T14:48:44.986Z,5.4
2023-03-01T14:50:01.217Z,5.4
2023-03-01T14:51:17.456Z,5.5
2023-03-01T14:52:33.705Z,5.5
2023-03-01T14:56:21.442Z,5.5
2023-03-01T14:57:36.716Z,5.4
2023-03-01T14:58:51.956Z,5.4
2023-03-01T15:00:08.213Z,5.4
2023-03-01T15:01:24.450Z,5.4
2023-03-01T15:02:40.693Z,5.4
2023-03-01T15:03:56.928Z,5.4
2023-03-01T15:05:13.168Z,5.4
2023-03-01T15:06:29.401Z,5.4
2023-03-01T15:07:45.655Z,5.4
2023-03-01T15:09:01.877Z,5.4
2023-03-01T15:11:34.374Z,5.4
2023-03-01T15:12:50.604Z,5.4
2023-03-01T15:14:06.851Z,5.4
2023-03-01T15:15:22.102Z,5.4
2023-03-01T15:16:38.340Z,5.4
2023-03-01T15:19:10.836Z,5.4
2023-03-01T15:20:27.075Z,5.4
2023-03-01T15:21:43.310Z,5.3
2023-03-01T15:22:59.556Z,5.4
2023-03-01T15:24:15.786Z,5.3
2023-03-01T15:25:32.032Z,5.4
2023-03-01T15:26:48.273Z,5.4
2023-03-01T15:28:04.508Z,5.4
2023-03-01T15:29:20.754Z,5.3
2023-03-01T15:30:37.002Z,5.4
2023-03-01T15:31:52.262Z,5.3
2023-03-01T15:34:24.736Z,5.4
2023-03-01T15:35:40.979Z,5.4
2023-03-01T15:36:57.216Z,5.3
2023-03-01T15:38:13.459Z,5.3
2023-03-01T15:39:29.696Z,5.3
2023-03-01T15:40:45.938Z,5.3
2023-03-01T15:42:02.186Z,5.3
2023-03-01T15:43:18.411Z,5.3
2023-03-01T15:44:34.655Z,5.2
2023-03-01T15:45:49.926Z,5.2
2023-03-01T15:47:05.175Z,5.2
2023-03-01T15:48:21.420Z,5.2
2023-03-01T15:49:37.653Z,5.1
2023-03-01T15:52:10.144Z,5.1
2023-03-01T15:53:26.386Z,5.1
2023-03-01T15:54:41.648Z,5.1
2023-03-01T15:55:57.889Z,5.1
2023-03-01T15:57:14.128Z,5
2023-03-01T15:58:30.365Z,5
2023-03-01T15:59:46.599Z,5
2023-03-01T16:01:02.840Z,5
2023-03-01T16:02:19.093Z,5
2023-03-01T16:03:35.319Z,5
2023-03-01T16:04:51.570Z,4.9
2023-03-01T16:06:07.816Z,4.9
2023-03-01T16:07:24.056Z,4.8
2023-03-01T16:08:40.299Z,4.8
2023-03-01T16:09:56.539Z,4.8
2023-03-01T16:11:12.780Z,4.8
2023-03-01T16:12:28.021Z,4.7
2023-03-01T16:13:44.417Z,4.7
2023-03-01T16:14:59.665Z,4.7
2023-03-01T16:16:15.918Z,4.7
2023-03-01T16:17:32.144Z,4.6
2023-03-01T16:20:04.633Z,4.6
2023-03-01T16:21:20.866Z,4.6
2023-03-01T16:22:37.112Z,4.5
2023-03-01T16:23:53.353Z,4.5
2023-03-01T16:25:09.598Z,4.4
2023-03-01T16:27:42.083Z,4.4
2023-03-01T16:28:58.322Z,4.3
2023-03-01T16:30:13.585Z,4.3
2023-03-01T16:31:29.826Z,4.3
2023-03-01T16:32:45.082Z,4.3
2023-03-01T16:34:01.321Z,4.2
2023-03-01T16:35:17.559Z,4.2
2023-03-01T16:36:33.804Z,4.2
2023-03-01T16:37:50.039Z,4.1
2023-03-01T16:39:06.287Z,4.1
2023-03-01T16:40:22.520Z,4
2023-03-01T16:41:38.765Z,4
2023-03-01T16:42:55.004Z,3.9
2023-03-01T16:44:11.244Z,3.9
2023-03-01T16:45:26.506Z,3.8
2023-03-01T16:46:41.770Z,3.8
2023-03-01T16:47:57.998Z,3.8
2023-03-01T16:49:14.247Z,3.7
2023-03-01T16:50:30.487Z,3.7
2023-03-01T16:51:46.715Z,3.7
2023-03-01T16:53:02.975Z,3.6
2023-03-01T16:54:19.197Z,3.6
2023-03-01T16:55:35.451Z,3.5
2023-03-01T16:56:51.691Z,3.5
2023-03-01T16:58:07.921Z,3.5
2023-03-01T16:59:24.171Z,3.4
2023-03-01T17:00:40.413Z,3.4
2023-03-01T17:01:56.654Z,3.4
2023-03-01T17:03:11.915Z,3.3
2023-03-01T17:04:28.148Z,3.3
2023-03-01T17:05:44.382Z,3.2
2023-03-01T17:07:00.645Z,3.2
2023-03-01T17:08:16.879Z,3.2
2023-03-01T17:09:33.113Z,3.1
2023-03-01T17:10:49.352Z,3.1
2023-03-01T17:12:05.600Z,3
2023-03-01T17:13:21.832Z,3
2023-03-01T17:14:38.076Z,3
2023-03-01T17:15:54.309Z,3
2023-03-01T17:17:10.561Z,3
2023-03-01T17:18:26.846Z,3
2023-03-01T17:20:58.340Z,2.9
2023-03-01T17:22:14.599Z,2.8
2023-03-01T17:23:30.835Z,2.9
2023-03-01T17:24:47.078Z,2.8
2023-03-01T17:26:03.307Z,2.8
2023-03-01T17:27:19.608Z,2.8
2023-03-01T17:28:35.905Z,2.7
2023-03-01T17:29:52.197Z,2.6
2023-03-01T17:31:08.493Z,2.6
2023-03-01T17:32:24.787Z,2.6
2023-03-01T17:33:41.079Z,2.6
2023-03-01T17:34:57.369Z,2.5
2023-03-01T17:36:12.693Z,2.5
2023-03-01T17:37:28.981Z,2.5
2023-03-01T17:38:45.288Z,2.5
2023-03-01T17:40:01.580Z,2.4
2023-03-01T17:41:17.874Z,2.4
2023-03-01T17:42:34.161Z,2.4
2023-03-01T17:43:50.454Z,2.4
2023-03-01T17:45:06.756Z,2.4
2023-03-01T17:46:23.055Z,2.4
2023-03-01T17:47:39.352Z,2.4
2023-03-01T17:48:55.638Z,2.4
2023-03-01T17:50:11.940Z,2.4
2023-03-01T17:51:28.225Z,2.4
2023-03-01T17:52:43.541Z,2.4
2023-03-01T17:53:59.833Z,2.3
2023-03-01T17:55:16.134Z,2.3
2023-03-01T17:56:32.418Z,2.3
2023-03-01T17:57:48.717Z,2.2
2023-03-01T17:59:05.005Z,2.2
2023-03-01T18:00:21.301Z,2.2
2023-03-01T18:01:37.611Z,2.2
2023-03-01T18:02:53.908Z,2.2
2023-03-01T18:04:10.184Z,2.1
2023-03-01T18:05:26.483Z,2.1
2023-03-01T18:06:42.783Z,2.1
2023-03-01T18:07:59.088Z,2.1
2023-03-01T18:09:14.386Z,2
2023-03-01T18:10:30.692Z,2
2023-03-01T18:11:46.977Z,2
2023-03-01T18:13:03.268Z,2
2023-03-01T18:14:19.522Z,1.9
2023-03-01T18:15:35.755Z,1.9
2023-03-01T18:16:52.011Z,1.9
2023-03-01T18:18:08.267Z,1.9
2023-03-01T18:19:24.489Z,1.9
2023-03-01T18:20:40.740Z,1.9
2023-03-01T18:21:56.983Z,1.9
2023-03-01T18:23:13.225Z,1.9